Latest Weather Observations for Hay Airport

IDN60801

Issued at 10:04 am EST Monday 19 April 2021 (issued every 10 minutes, with the page automatically refreshed every 10 minutes)

About weather observations | Map of weather stations | Latest weather observations for NSW | Other Formats
Station Details ID: 075019 Name: HAY AIRPORT AWS Lat: -34.54 Lon: 144.83 Height: 92.0 m
Data from the previous 72 hours. | See also: Recent months at Hay Airport
Date/Time
EST
Temp
°C
App
Temp
°C
Dew
Point
°C
Rel
Hum
%
Delta-T
°C
Wind Press
QNH
hPa
Press
MSL
hPa
Rain since
9am
mm
Dir  Spd
km/h
Gust
km/h
Spd
kts
Gust
kts
19/10:00am 17.7 14.6 5.6 45 5.9 WNW 11 15 6 8 1020.2 1020.1 0.0
19/09:30am 16.7 13.6 5.6 48 5.4 NW 11 15 6 8 1020.5 1020.4 0.0
19/09:00am 15.7 12.7 5.9 52 4.7 WNW 11 13 6 7 1020.8 1020.7 0.0
19/08:30am 13.3 11.0 5.7 60 3.6 WNW 7 11 4 6 1020.6 1020.5 0.0
19/08:00am 11.0 8.7 5.7 70 2.5 NW 7 9 4 5 1020.4 1020.3 0.0
19/07:30am 8.6 6.2 5.4 80 1.4 NNW 7 9 4 5 1020.1 1020.0 0.0
19/07:00am 5.9 3.1 3.2 83 1.1 NW 7 9 4 5 1019.9 1019.8 0.0
19/06:30am 5.5 2.8 2.7 82 1.2 WNW 6 7 3 4 1019.9 1019.8 0.0
19/06:00am 5.9 2.8 3.6 85 1.0 NW 9 11 5 6 1019.8 1019.7 0.0
19/05:30am 5.5 2.7 3.3 86 0.9 NW 7 9 4 5 1019.7 1019.6 0.0
19/05:00am 5.3 2.1 3.0 85 0.9 NNW 9 11 5 6 1019.5 1019.4 0.0
19/04:30am 6.3 2.9 4.1 86 0.9 WNW 11 13 6 7 1019.5 1019.4 0.0
19/04:00am 5.6 2.4 3.3 85 1.0 NE 9 9 5 5 1019.3 1019.2 0.0
19/03:30am 6.3 3.8 3.8 84 1.1 W 6 7 3 4 1019.7 1019.6 0.0
19/03:00am 6.1 4.5 2.4 77 1.5 CALM 0 0 0 0 1019.9 1019.8 0.0
19/02:30am 6.2 4.7 3.2 81 1.3 CALM 0 0 0 0 1020.2 1020.1 0.0
19/02:00am 7.3 6.0 3.9 79 1.5 CALM 0 4 0 2 1020.4 1020.3 0.0
19/01:30am 6.9 4.3 3.0 76 1.6 W 6 7 3 4 1020.8 1020.7 0.0
19/01:00am 6.8 5.2 2.5 74 1.8 CALM 0 0 0 0 1020.8 1020.7 0.0
19/12:30am 7.5 6.1 3.6 76 1.7 CALM 0 0 0 0 1020.7 1020.6 0.0
19/12:00am 8.0 6.5 3.1 71 2.1 CALM 0 0 0 0 1020.7 1020.6 0.0
 
Date/Time
EST
Temp
°C
App
Temp
°C
Dew
Point
°C
Rel
Hum
%
Delta-T
°C
Wind Press
QNH
hPa
Press
MSL
hPa
Rain since
9am
mm
Dir  Spd
km/h
Gust
km/h
Spd
kts
Gust
kts
18/11:30pm 7.9 6.2 2.0 66 2.4 CALM 0 0 0 0 1020.8 1020.7 0.0
18/11:00pm 8.3 6.6 1.9 64 2.6 CALM 0 0 0 0 1021.2 1021.1 0.0
18/10:30pm 9.2 7.6 2.5 63 2.8 CALM 0 0 0 0 1021.3 1021.2 0.0
18/10:00pm 10.9 7.5 3.9 62 3.1 S 11 13 6 7 1021.5 1021.4 0.0
18/09:30pm 11.2 7.4 3.7 60 3.3 SSW 13 15 7 8 1021.7 1021.6 0.0
18/09:00pm 11.5 7.7 3.8 59 3.4 SSW 13 15 7 8 1021.7 1021.6 0.0
18/08:30pm 11.4 7.8 3.2 57 3.6 SSW 11 13 6 7 1021.6 1021.5 0.0
18/08:00pm 12.3 9.1 3.3 54 4.0 SSW 9 13 5 7 1021.5 1021.4 0.0
18/07:30pm 14.0 10.2 4.0 51 4.6 SSW 13 17 7 9 1021.6 1021.5 0.0
18/07:00pm 14.6 11.5 3.7 48 5.0 SSW 9 11 5 6 1021.4 1021.3 0.0
18/06:30pm 15.8 13.3 4.5 47 5.3 SSW 7 9 4 5 1021.2 1021.1 0.0
18/06:00pm 16.6 13.6 4.3 44 5.8 SSW 9 13 5 7 1020.9 1020.8 0.0
18/05:30pm 18.7 15.0 4.5 39 6.8 SW 13 20 7 11 1020.7 1020.6 0.0
18/05:00pm 19.2 14.3 4.9 39 6.9 SW 20 26 11 14 1020.7 1020.6 0.0
18/04:30pm 19.8 15.2 5.5 39 7.1 SW 19 28 10 15 1020.7 1020.6 0.0
18/04:00pm 20.5 16.6 5.3 37 7.5 WSW 15 24 8 13 1020.8 1020.7 0.0
18/03:30pm 20.3 16.0 5.1 37 7.5 WSW 17 24 9 13 1020.8 1020.7 0.0
18/03:00pm 20.6 16.0 5.4 37 7.5 SW 19 30 10 16 1020.9 1020.8 0.0
18/02:30pm 19.9 15.6 5.2 38 7.2 SW 17 26 9 14 1021.0 1020.9 0.0
18/02:00pm 20.3 16.1 5.5 38 7.3 SSW 17 26 9 14 1021.3 1021.2 0.0
18/01:30pm 20.2 15.9 5.1 37 7.4 SSW 17 26 9 14 1021.7 1021.6 0.0
18/01:00pm 18.7 14.0 5.2 41 6.6 SSW 19 26 10 14 1022.2 1022.1 0.0
18/12:30pm 19.8 16.3 5.5 39 7.1 SW 13 22 7 12 1022.8 1022.6 0.0
18/12:00pm 18.7 14.3 4.5 39 6.8 SSW 17 26 9 14 1023.2 1023.0 0.0
18/11:30am 18.2 13.4 4.4 40 6.6 SSW 19 30 10 16 1023.6 1023.4 0.0
18/11:00am 17.9 13.5 4.8 42 6.3 S 17 28 9 15 1024.0 1023.8 0.0
18/10:30am 17.7 13.3 5.0 43 6.1 SSW 17 26 9 14 1024.3 1024.1 0.0
18/10:00am 17.0 13.0 4.7 44 5.8 SSW 15 20 8 11 1024.5 1024.3 0.0
18/09:30am 16.5 12.8 4.5 45 5.7 SW 13 19 7 10 1024.7 1024.5 0.0
18/09:00am 14.8 11.0 3.9 48 5.0 SW 13 17 7 9 1024.9 1024.7 0.0
18/08:30am 12.4 9.7 3.6 55 3.9 WSW 7 9 4 5 1024.6 1024.4 0.0
18/08:00am 9.7 6.8 2.8 62 2.9 SW 7 11 4 6 1024.6 1024.4 0.0
18/07:30am 5.9 2.4 1.1 71 1.9 SW 9 11 5 6 1024.4 1024.2 0.0
18/07:00am 3.1 -0.7 -0.5 77 1.3 WSW 9 11 5 6 1024.1 1023.9 0.0
18/06:30am 3.5 0.1 -0.5 75 1.5 WSW 7 9 4 5 1023.9 1023.7 0.0
18/06:00am 4.1 0.3 -0.5 72 1.7 WSW 9 11 5 6 1023.9 1023.7 0.0
18/05:30am 4.5 0.4 -0.3 71 1.8 WSW 11 17 6 9 1023.8 1023.6 0.0
18/05:00am 4.4 0.7 -0.2 72 1.7 W 9 11 5 6 1023.7 1023.5 0.0
18/04:30am 4.4 1.1 -0.2 72 1.7 W 7 9 4 5 1023.5 1023.3 0.0
18/04:00am 4.6 0.9 0.0 72 1.7 W 9 9 5 5 1023.3 1023.1 0.0
18/03:30am 4.0 0.8 -0.6 72 1.7 W 6 7 3 4 1023.1 1022.9 0.0
18/03:00am 4.4 1.0 -0.4 71 1.8 W 7 9 4 5 1023.3 1023.1 0.0
18/02:30am 5.2 3.2 -0.2 68 2.1 CALM 0 4 0 2 1023.6 1023.4 0.0
18/02:00am 5.7 2.4 0.3 68 2.1 SSW 7 9 4 5 1023.8 1023.6 0.0
18/01:30am 5.6 1.9 0.0 67 2.2 WSW 9 11 5 6 1024.1 1023.9 0.0
18/01:00am 7.1 3.8 0.3 62 2.7 SSW 7 7 4 4 1024.2 1024.0 0.0
18/12:30am 8.6 5.6 1.7 62 2.9 S 7 9 4 5 1024.2 1024.0 0.0
18/12:00am 9.7 5.1 1.8 58 3.3 SSW 15 17 8 9 1024.4 1024.2 0.0
 
Date/Time
EST
Temp
°C
App
Temp
°C
Dew
Point
°C
Rel
Hum
%
Delta-T
°C
Wind Press
QNH
hPa
Press
MSL
hPa
Rain since
9am
mm
Dir  Spd
km/h
Gust
km/h
Spd
kts
Gust
kts
17/11:30pm 10.0 5.1 1.9 57 3.4 SSW 17 19 9 10 1024.4 1024.2 0.0
17/11:00pm 8.6 4.6 0.3 56 3.3 SW 11 13 6 7 1024.5 1024.3 0.0
17/10:30pm 9.3 5.7 0.5 54 3.6 SW 9 13 5 7 1024.6 1024.4 0.0
17/10:00pm 9.6 5.6 0.2 52 3.8 SW 11 13 6 7 1024.6 1024.4 0.0
17/09:30pm 11.8 7.6 1.7 50 4.3 SSW 13 15 7 8 1024.5 1024.3 0.0
17/09:00pm 12.4 7.8 1.7 48 4.6 SSW 15 19 8 10 1024.5 1024.3 0.0
17/08:30pm 12.0 7.4 1.3 48 4.5 SSW 15 19 8 10 1024.6 1024.4 0.0
17/08:00pm 11.5 7.6 0.9 48 4.4 SW 11 13 6 7 1024.7 1024.5 0.0
17/07:30pm 12.3 8.0 1.3 47 4.7 SSW 13 15 7 8 1024.6 1024.4 0.0
17/07:00pm 12.5 8.6 1.2 46 4.8 SW 11 11 6 6 1024.5 1024.3 0.0
17/06:30pm 13.3 9.4 1.0 43 5.2 SSW 11 13 6 7 1024.2 1024.0 0.0
17/06:00pm 15.5 10.5 1.3 38 6.2 SSW 17 20 9 11 1023.9 1023.7 0.0
17/05:30pm 16.9 10.5 1.0 34 7.0 SW 24 32 13 17 1023.5 1023.3 0.0
17/05:00pm 18.0 11.2 1.1 32 7.5 SW 26 33 14 18 1023.2 1023.0 0.0
17/04:30pm 18.6 11.8 0.7 30 8.0 SW 26 35 14 19 1023.2 1023.0 0.0
17/04:00pm 18.9 12.6 1.4 31 7.9 SSW 24 35 13 19 1023.1 1022.9 0.0
17/03:30pm 18.7 12.0 1.2 31 7.9 SW 26 33 14 18 1023.0 1022.8 0.0
17/03:00pm 18.6 12.7 1.6 32 7.7 SW 22 33 12 18 1023.2 1023.0 0.0
17/02:30pm 18.7 12.4 1.7 32 7.7 WSW 24 37 13 20 1023.3 1023.1 0.0
17/02:00pm 18.4 11.8 1.9 33 7.5 SW 26 37 14 20 1023.5 1023.3 0.0
17/01:30pm 17.9 11.6 1.8 34 7.3 SW 24 37 13 20 1023.7 1023.5 0.0
17/01:00pm 17.9 11.7 2.2 35 7.1 SW 24 37 13 20 1024.0 1023.8 0.0
17/12:30pm 16.9 11.5 2.5 38 6.5 SW 20 35 11 19 1024.6 1024.4 0.0
17/12:00pm 16.4 9.8 2.1 38 6.4 SSW 26 35 14 19 1025.0 1024.8 0.0
17/11:30am 16.0 9.0 2.1 39 6.2 SSW 28 39 15 21 1025.4 1025.2 0.0
17/11:00am 15.4 8.5 2.6 42 5.7 SW 28 39 15 21 1025.6 1025.4 0.0
17/10:30am 15.0 8.5 2.9 44 5.5 SW 26 37 14 20 1026.0 1025.8 0.0
17/10:00am 14.8 8.8 3.3 46 5.2 SSW 24 37 13 20 1026.1 1025.9 0.0
17/09:30am 13.4 7.8 3.2 50 4.6 SSW 22 28 12 15 1026.2 1026.0 0.0
17/09:00am 12.7 7.1 3.6 54 4.1 SSW 22 30 12 16 1026.3 1026.1 0.0
17/08:30am 11.5 6.3 3.5 58 3.6 S 20 28 11 15 1026.2 1026.0 0.0
17/08:00am 9.0 5.1 3.6 69 2.3 SSW 13 17 7 9 1026.0 1025.8 0.0
17/07:30am 5.3 1.6 2.1 80 1.3 SW 11 15 6 8 1025.6 1025.4 0.0
17/07:00am 4.1 -0.1 1.5 83 1.0 SSW 13 15 7 8 1025.3 1025.1 0.0
17/06:30am 3.5 -1.2 1.2 85 0.9 SSW 15 15 8 8 1025.1 1024.9 0.0
17/06:00am 2.9 -1.1 0.3 83 1.0 SW 11 13 6 7 1025.2 1025.0 0.0
17/05:30am 3.7 -0.2 0.9 82 1.1 SSW 11 13 6 7 1025.0 1024.8 0.0
17/05:00am 3.6 -0.4 0.7 81 1.1 SSW 11 11 6 6 1024.8 1024.6 0.0
17/04:30am 3.9 0.7 0.9 81 1.2 SW 7 9 4 5 1024.5 1024.3 0.0
17/04:00am 3.7 1.4 0.4 79 1.2 SSW 2 6 1 3 1024.2 1024.0 0.0
17/03:30am 4.1 1.0 0.4 77 1.4 SSW 6 9 3 5 1024.1 1023.9 0.0
17/03:00am 5.0 0.8 1.5 78 1.4 SSW 13 15 7 8 1024.2 1024.0 0.0
17/02:30am 5.2 1.3 1.1 75 1.6 SSW 11 13 6 7 1024.1 1023.9 0.0
17/02:00am 5.9 2.0 1.2 72 1.9 S 11 15 6 8 1024.1 1023.9 0.0
17/01:30am 6.7 2.5 1.6 70 2.1 S 13 17 7 9 1024.1 1023.9 0.0
17/01:00am 6.7 2.4 0.8 66 2.3 SSW 13 15 7 8 1024.2 1024.0 0.0
17/12:30am 7.1 2.7 0.3 62 2.7 SW 13 15 7 8 1024.1 1023.9 0.0
17/12:00am 8.3 4.0 1.0 60 2.9 SSW 13 17 7 9 1023.9 1023.7 0.0
 
Date/Time
EST
Temp
°C
App
Temp
°C
Dew
Point
°C
Rel
Hum
%
Delta-T
°C
Wind Press
QNH
hPa
Press
MSL
hPa
Rain since
9am
mm
Dir  Spd
km/h
Gust
km/h
Spd
kts
Gust
kts
16/11:30pm 7.7 3.6 -0.3 57 3.1 SSW 11 13 6 7 1023.9 1023.7 0.0
16/11:00pm 9.0 4.7 0.7 56 3.4 SSW 13 17 7 9 1024.2 1024.0 0.0
16/10:30pm 9.3 5.0 0.7 55 3.5 SSW 13 15 7 8 1024.0 1023.8 0.0
16/10:00pm 9.5 5.1 0.1 52 3.8 SSW 13 15 7 8 1024.0 1023.8 0.0
16/09:30pm 9.6 5.1 -0.3 50 4.0 SSW 13 15 7 8 1023.9 1023.7 0.0
16/09:00pm 11.2 6.4 0.3 47 4.5 SW 15 17 8 9 1023.7 1023.5 0.0
16/08:30pm 11.6 7.1 -0.2 44 4.8 SW 13 15 7 8 1023.6 1023.4 0.0
16/08:00pm 12.8 8.0 0.2 42 5.2 SW 15 19 8 10 1023.5 1023.3 0.0
16/07:30pm 13.3 8.9 0.3 41 5.5 SSW 13 17 7 9 1023.1 1022.9 0.0
16/07:00pm 14.3 9.6 0.6 39 5.8 SSW 15 20 8 11 1022.9 1022.7 0.0
16/06:30pm 15.7 11.0 0.7 36 6.5 SW 15 20 8 11 1022.4 1022.3 0.0
16/06:00pm 16.4 11.6 0.1 33 7.0 S 15 20 8 11 1022.0 1021.9 0.0
16/05:30pm 18.6 14.2 0.2 29 8.1 SSW 13 20 7 11 1021.7 1021.6 0.0
16/05:00pm 19.4 14.2 0.4 28 8.4 SW 17 24 9 13 1021.7 1021.6 0.0
16/04:30pm 20.1 15.0 0.5 27 8.8 SSW 17 22 9 12 1021.6 1021.5 0.0
16/04:00pm 20.2 14.6 0.1 26 8.9 SW 19 26 10 14 1021.5 1021.4 0.0
16/03:30pm 20.5 14.7 -0.2 25 9.2 SSW 20 30 11 16 1021.5 1021.4 0.0
16/03:00pm 20.3 14.8 0.7 27 8.8 SSW 19 26 10 14 1021.5 1021.4 0.0
16/02:30pm 20.3 14.7 0.2 26 9.0 SSW 19 28 10 15 1021.6 1021.5 0.0
16/02:00pm 20.6 14.8 -0.1 25 9.2 SW 20 33 11 18 1022.0 1021.9 0.0
16/01:30pm 20.0 14.4 1.0 28 8.6 SSW 20 35 11 19 1022.2 1022.1 0.0
16/01:00pm 19.7 14.4 2.1 31 8.1 SSW 19 30 10 16 1022.4 1022.3 0.0
16/12:30pm 19.0 13.5 2.0 32 7.8 SSW 20 28 11 15 1023.0 1022.8 0.0
16/12:00pm 18.7 13.9 2.5 34 7.4 SSW 17 26 9 14 1023.3 1023.1 0.0
16/11:30am 18.1 13.4 3.2 37 6.9 S 17 30 9 16 1023.4 1023.2 0.0
16/11:00am 18.4 13.4 3.5 37 7.0 S 19 28 10 15 1023.6 1023.4 0.0
16/10:30am 17.0 11.8 2.2 37 6.7 SSE 19 26 10 14 1023.7 1023.5 0.0

Other formats

Comma delimited format used in spreadsheet applications
http://www.bom.gov.au/fwo/IDN60801/IDN60801.94702.axf

JavaScript Object Notation format (JSON) in row-major order
http://www.bom.gov.au/fwo/IDN60801/IDN60801.94702.json

Data quality

Most of these data are generated automatically and are frequently updated. Quality checks on data are not normally performed. It is possible for incorrect values to appear. Refer to information at About Latest Weather Observations and please check the disclaimer before using these data.